Time;durP1;ratioP1;P1;durP2;ratioP2;P2;SDS_P1;SDS_P2;PMS_P1;PMS_P2;Temp;Humidity;BMP_temperature;BMP_pressure;BME280_temperature;BME280_humidity;BME280_pressure;Samples;Min_cycle;Max_cycle;Signal;HPM_P1;HPM_P2
2023/07/08 00:01:21;;;;;;;;;;;16.60;99.90;;;;;;5004328;28;20027;-62
2023/07/08 00:03:46;;;;;;;;;;;16.50;99.90;;;;;;4999037;28;19990;-62
2023/07/08 00:06:17;;;;;;;;;;;16.40;99.90;;;;;;4999072;28;20002;-62
2023/07/08 00:08:43;;;;;;;;;;;16.40;99.90;;;;;;4996768;28;19935;-62
2023/07/08 00:11:12;;;;;;;;;;;16.40;99.90;;;;;;4990008;28;19951;-68
2023/07/08 00:13:37;;;;;;;;;;;16.50;99.90;;;;;;4994484;28;20917;-68
2023/07/08 00:16:03;;;;;;;;;;;16.50;99.90;;;;;;5004068;28;19924;-68
2023/07/08 00:18:28;;;;;;;;;;;16.40;99.90;;;;;;5004103;28;19925;-68
2023/07/08 00:20:54;;;;;;;;;;;16.30;99.90;;;;;;4989780;28;19929;-68
2023/07/08 00:23:22;;;;;;;;;;;16.30;99.90;;;;;;5003428;28;20138;-67
2023/07/08 00:25:48;;;;;;;;;;;16.30;99.90;;;;;;5003730;28;19926;-68
2023/07/08 00:28:20;;;;;;;;;;;16.20;99.90;;;;;;5003707;28;19936;-68
2023/07/08 00:30:46;;;;;;;;;;;16.20;99.90;;;;;;5003179;28;19934;-68
2023/07/08 00:33:12;;;;;;;;;;;16.10;99.90;;;;;;4999990;28;19953;-68
2023/07/08 00:35:38;;;;;;;;;;;15.90;99.90;;;;;;4997610;28;19944;-68
2023/07/08 00:38:12;;;;;;;;;;;15.90;99.90;;;;;;4987372;28;19953;-67
2023/07/08 00:40:48;;;;;;;;;;;15.90;99.90;;;;;;4996377;28;19930;-68
2023/07/08 00:43:14;;;;;;;;;;;15.90;99.90;;;;;;5003418;28;19928;-68
2023/07/08 00:45:45;;;;;;;;;;;15.90;99.90;;;;;;5004574;28;19932;-62
2023/07/08 00:48:23;;;;;;;;;;;15.90;99.90;;;;;;5009164;28;19971;-62
2023/07/08 00:50:52;;;;;;;;;;;15.90;99.90;;;;;;5004587;28;20386;-62
2023/07/08 00:53:25;;;;;;;;;;;15.80;99.90;;;;;;5004872;28;20008;-62
2023/07/08 00:55:51;;;;;;;;;;;15.60;99.90;;;;;;5000025;28;20382;-62
2023/07/08 00:58:19;;;;;;;;;;;15.60;99.90;;;;;;4990062;28;19954;-62
2023/07/08 01:00:44;;;;;;;;;;;15.60;99.90;;;;;;4990797;28;19933;-62
2023/07/08 01:03:10;;;;;;;;;;;15.50;99.90;;;;;;4997542;28;19935;-67
2023/07/08 01:05:38;;;;;;;;;;;15.50;99.90;;;;;;5004618;28;19934;-67
2023/07/08 01:08:05;;;;;;;;;;;15.50;99.90;;;;;;5003762;28;19944;-68
2023/07/08 01:10:36;;;;;;;;;;;15.40;99.90;;;;;;5004957;28;19928;-68
2023/07/08 01:13:02;;;;;;;;;;;15.40;99.90;;;;;;5003579;28;19952;-67
2023/07/08 01:15:32;;;;;;;;;;;15.30;99.90;;;;;;4990527;28;20001;-68
2023/07/08 01:17:58;;;;;;;;;;;15.20;99.90;;;;;;5003030;28;20067;-68
2023/07/08 01:20:24;;;;;;;;;;;15.20;99.90;;;;;;5003819;28;21152;-68
2023/07/08 01:22:49;;;;;;;;;;;15.10;99.90;;;;;;5004315;28;19924;-67
2023/07/08 01:25:15;;;;;;;;;;;15.00;99.90;;;;;;5005029;28;19984;-68
2023/07/08 01:27:44;;;;;;;;;;;15.00;99.90;;;;;;5005588;28;19941;-68
2023/07/08 01:30:10;;;;;;;;;;;14.90;99.90;;;;;;5002034;28;19938;-68
2023/07/08 01:32:37;;;;;;;;;;;14.80;99.90;;;;;;5000200;28;23243;-68
2023/07/08 01:35:03;;;;;;;;;;;14.80;99.90;;;;;;5002002;28;20553;-67
2023/07/08 01:37:48;;;;;;;;;;;14.80;99.90;;;;;;5004524;28;20100;-67
2023/07/08 01:40:15;;;;;;;;;;;14.80;99.90;;;;;;5003559;28;20470;-67
2023/07/08 01:42:40;;;;;;;;;;;14.70;99.90;;;;;;5002118;28;19939;-67
2023/07/08 01:45:12;;;;;;;;;;;14.80;99.90;;;;;;4991635;28;20037;-67
2023/07/08 01:47:38;;;;;;;;;;;14.80;99.90;;;;;;4995084;28;20052;-67
2023/07/08 01:50:04;;;;;;;;;;;14.80;99.90;;;;;;4995342;28;19986;-67
2023/07/08 01:52:29;;;;;;;;;;;14.70;99.90;;;;;;4995043;28;20301;-67
2023/07/08 01:54:55;;;;;;;;;;;14.70;99.90;;;;;;4989399;28;20397;-68
2023/07/08 01:57:21;;;;;;;;;;;14.60;99.90;;;;;;4992067;28;19942;-67
2023/07/08 01:59:47;;;;;;;;;;;14.60;99.90;;;;;;4989878;28;19985;-67
2023/07/08 02:02:13;;;;;;;;;;;14.60;99.90;;;;;;4992396;28;19933;-68
2023/07/08 02:04:38;;;;;;;;;;;14.50;99.90;;;;;;4990655;28;19974;-67
2023/07/08 02:07:04;;;;;;;;;;;14.50;99.90;;;;;;4996275;28;19939;-67
2023/07/08 02:09:30;;;;;;;;;;;14.60;99.90;;;;;;5000325;28;19932;-68
2023/07/08 02:11:55;;;;;;;;;;;14.60;99.90;;;;;;4995386;28;20006;-68
2023/07/08 02:14:21;;;;;;;;;;;14.60;99.90;;;;;;4983438;28;19928;-67
2023/07/08 02:16:47;;;;;;;;;;;14.50;99.90;;;;;;4989271;28;20023;-68
2023/07/08 02:19:12;;;;;;;;;;;14.50;99.90;;;;;;5003521;28;19962;-68
2023/07/08 02:21:38;;;;;;;;;;;14.30;99.90;;;;;;5003891;28;21275;-68
2023/07/08 02:24:04;;;;;;;;;;;14.30;99.90;;;;;;5004576;28;19939;-68
2023/07/08 02:26:31;;;;;;;;;;;14.30;99.90;;;;;;4996802;28;19927;-67
2023/07/08 02:29:00;;;;;;;;;;;14.30;99.90;;;;;;5002723;28;19931;-67
2023/07/08 02:31:26;;;;;;;;;;;14.30;99.90;;;;;;4999011;28;20153;-68
2023/07/08 02:33:52;;;;;;;;;;;14.30;99.90;;;;;;4998117;28;19972;-67
2023/07/08 02:36:17;;;;;;;;;;;14.30;99.90;;;;;;4985347;28;19939;-67
2023/07/08 02:38:43;;;;;;;;;;;14.40;99.90;;;;;;5003010;28;19956;-62
2023/07/08 02:41:08;;;;;;;;;;;14.40;99.90;;;;;;4997006;28;20386;-62
2023/07/08 02:43:34;;;;;;;;;;;14.50;99.90;;;;;;4988472;28;19921;-62
2023/07/08 02:45:59;;;;;;;;;;;14.40;99.90;;;;;;4997260;28;20433;-62
2023/07/08 02:48:25;;;;;;;;;;;14.40;99.90;;;;;;4995854;28;20010;-62
2023/07/08 02:50:50;;;;;;;;;;;14.40;99.90;;;;;;4992780;28;20003;-62
2023/07/08 02:53:16;;;;;;;;;;;14.40;99.90;;;;;;4991411;28;20028;-62
2023/07/08 02:55:42;;;;;;;;;;;14.50;99.90;;;;;;4991331;28;20025;-67
2023/07/08 02:58:09;;;;;;;;;;;14.40;99.90;;;;;;4993067;28;19967;-67
2023/07/08 03:00:37;;;;;;;;;;;14.40;99.90;;;;;;5007645;28;20017;-67
2023/07/08 03:03:03;;;;;;;;;;;14.40;99.90;;;;;;5007519;28;20520;-67
2023/07/08 03:05:29;;;;;;;;;;;14.40;99.90;;;;;;5004936;28;19929;-67
2023/07/08 03:07:54;;;;;;;;;;;14.40;99.90;;;;;;5004742;28;19928;-67
2023/07/08 03:10:20;;;;;;;;;;;14.40;99.90;;;;;;5012116;28;19931;-67
2023/07/08 03:12:45;;;;;;;;;;;14.30;99.90;;;;;;5010258;28;20471;-62
2023/07/08 03:15:10;;;;;;;;;;;14.30;99.90;;;;;;5004777;28;19936;-62
2023/07/08 03:17:36;;;;;;;;;;;14.30;99.90;;;;;;5000742;28;20963;-62
2023/07/08 03:20:05;;;;;;;;;;;14.30;99.90;;;;;;4999511;28;20023;-62
2023/07/08 03:22:30;;;;;;;;;;;14.40;99.90;;;;;;4992720;28;19929;-62
2023/07/08 03:24:56;;;;;;;;;;;14.40;99.90;;;;;;4985493;28;19963;-61
2023/07/08 03:27:21;;;;;;;;;;;14.40;99.90;;;;;;4983625;28;20460;-62
2023/07/08 03:29:47;;;;;;;;;;;14.40;99.90;;;;;;5004612;28;19994;-62
2023/07/08 03:32:12;;;;;;;;;;;14.30;99.90;;;;;;5005438;28;19939;-67
2023/07/08 03:34:38;;;;;;;;;;;14.20;99.90;;;;;;5005683;28;20531;-67
2023/07/08 03:37:04;;;;;;;;;;;14.10;99.90;;;;;;4992650;28;20652;-67
2023/07/08 03:39:31;;;;;;;;;;;14.10;99.90;;;;;;5004642;28;19962;-67
2023/07/08 03:41:57;;;;;;;;;;;14.10;99.90;;;;;;5005621;28;19928;-67
2023/07/08 03:44:23;;;;;;;;;;;14.20;99.90;;;;;;5005598;28;19941;-67
2023/07/08 03:46:51;;;;;;;;;;;14.30;99.90;;;;;;5007522;28;19956;-68
2023/07/08 03:49:24;;;;;;;;;;;14.40;99.90;;;;;;5005326;28;20838;-69
2023/07/08 03:51:51;;;;;;;;;;;14.60;99.90;;;;;;5009012;28;19924;-62
2023/07/08 03:54:18;;;;;;;;;;;14.70;99.90;;;;;;5008233;28;19989;-63
2023/07/08 03:56:43;;;;;;;;;;;14.90;99.90;;;;;;5006734;28;20323;-63
2023/07/08 03:59:09;;;;;;;;;;;15.00;99.90;;;;;;4991818;28;20488;-63
2023/07/08 04:01:35;;;;;;;;;;;15.10;99.90;;;;;;4985429;28;19928;-63
2023/07/08 04:04:01;;;;;;;;;;;15.10;99.90;;;;;;4993862;28;19929;-62
2023/07/08 04:06:28;;;;;;;;;;;15.20;99.90;;;;;;5000911;28;19930;-62
2023/07/08 04:08:54;;;;;;;;;;;15.20;99.90;;;;;;4991854;28;19926;-62
2023/07/08 04:11:21;;;;;;;;;;;15.30;99.90;;;;;;4998368;28;22166;-67
2023/07/08 04:13:46;;;;;;;;;;;15.40;99.90;;;;;;5010445;28;19923;-67
2023/07/08 04:16:21;;;;;;;;;;;15.50;99.90;;;;;;5008036;28;20322;-68
2023/07/08 04:18:47;;;;;;;;;;;15.60;99.90;;;;;;5007818;28;19963;-67
2023/07/08 04:21:13;;;;;;;;;;;15.70;99.90;;;;;;5003543;28;19934;-67
2023/07/08 04:23:38;;;;;;;;;;;15.80;99.90;;;;;;5010954;28;20245;-68
2023/07/08 04:26:04;;;;;;;;;;;15.90;99.90;;;;;;5006739;28;19937;-67
2023/07/08 04:28:29;;;;;;;;;;;16.10;99.90;;;;;;5005307;28;19965;-67
2023/07/08 04:30:55;;;;;;;;;;;16.10;99.90;;;;;;5005858;28;20492;-67
2023/07/08 04:33:20;;;;;;;;;;;16.20;99.90;;;;;;5003315;28;19996;-68
2023/07/08 04:35:46;;;;;;;;;;;16.40;99.90;;;;;;5007473;28;19935;-67
2023/07/08 04:38:21;;;;;;;;;;;16.60;99.90;;;;;;5005399;28;20090;-67
2023/07/08 04:40:47;;;;;;;;;;;16.60;99.90;;;;;;5004361;28;19943;-67
2023/07/08 04:43:12;;;;;;;;;;;16.80;99.90;;;;;;5006377;28;19938;-68
2023/07/08 04:45:39;;;;;;;;;;;16.90;99.90;;;;;;5000144;28;19945;-67
2023/07/08 04:48:08;;;;;;;;;;;16.90;99.90;;;;;;5003938;28;19996;-62
2023/07/08 04:50:34;;;;;;;;;;;17.00;99.90;;;;;;5003842;28;19932;-62
2023/07/08 04:52:59;;;;;;;;;;;17.10;99.90;;;;;;5001446;28;19971;-62
2023/07/08 04:55:25;;;;;;;;;;;17.20;99.90;;;;;;4996206;28;19932;-62
2023/07/08 04:57:51;;;;;;;;;;;17.30;99.90;;;;;;5008805;28;20270;-62
2023/07/08 05:00:17;;;;;;;;;;;17.30;99.90;;;;;;5001475;28;20456;-62
2023/07/08 05:02:42;;;;;;;;;;;17.40;99.90;;;;;;4998293;28;19934;-62
2023/07/08 05:05:08;;;;;;;;;;;17.60;99.90;;;;;;5003376;28;19933;-62
2023/07/08 05:07:34;;;;;;;;;;;17.70;99.90;;;;;;5004191;28;20036;-62
2023/07/08 05:09:59;;;;;;;;;;;17.80;99.90;;;;;;4989172;28;20054;-62
2023/07/08 05:12:25;;;;;;;;;;;17.90;99.90;;;;;;5004304;28;19942;-62
2023/07/08 05:14:51;;;;;;;;;;;18.00;99.90;;;;;;5006220;28;19935;-62
2023/07/08 05:17:16;;;;;;;;;;;18.00;99.90;;;;;;4998803;28;20420;-62
2023/07/08 05:19:44;;;;;;;;;;;18.10;99.90;;;;;;4996470;28;20479;-62
2023/07/08 05:22:09;;;;;;;;;;;18.20;99.90;;;;;;4992169;28;19944;-62
2023/07/08 05:24:35;;;;;;;;;;;18.30;99.90;;;;;;4986448;28;19933;-62
2023/07/08 05:27:00;;;;;;;;;;;18.40;99.90;;;;;;4994050;28;19930;-62
2023/07/08 05:29:26;;;;;;;;;;;18.50;99.90;;;;;;4981262;28;19941;-62
2023/07/08 05:31:51;;;;;;;;;;;18.60;99.90;;;;;;4995927;28;20631;-62
2023/07/08 05:34:17;;;;;;;;;;;18.80;99.90;;;;;;4996156;28;20390;-62
2023/07/08 05:36:42;;;;;;;;;;;19.00;99.90;;;;;;5001305;28;19942;-63
2023/07/08 05:39:08;;;;;;;;;;;19.10;99.90;;;;;;5004500;28;20109;-63
2023/07/08 05:41:33;;;;;;;;;;;19.30;99.90;;;;;;5003563;28;20545;-62
2023/07/08 05:43:59;;;;;;;;;;;19.40;99.90;;;;;;5004165;28;19959;-62
2023/07/08 05:46:24;;;;;;;;;;;19.50;99.90;;;;;;5002346;28;20417;-62
2023/07/08 05:48:50;;;;;;;;;;;19.60;99.90;;;;;;5008316;28;19936;-62
2023/07/08 05:51:16;;;;;;;;;;;19.80;99.90;;;;;;4997946;28;20018;-62
2023/07/08 05:53:42;;;;;;;;;;;20.00;99.90;;;;;;4993183;28;19936;-62
2023/07/08 05:56:07;;;;;;;;;;;20.10;99.90;;;;;;4993933;28;20480;-63
2023/07/08 05:58:33;;;;;;;;;;;20.20;99.90;;;;;;4996751;28;19959;-67
2023/07/08 06:00:59;;;;;;;;;;;20.30;99.90;;;;;;4972682;28;20902;-62
2023/07/08 06:03:25;;;;;;;;;;;20.40;99.90;;;;;;4991224;28;19938;-62
2023/07/08 06:05:50;;;;;;;;;;;20.40;99.90;;;;;;5002911;28;20100;-62
2023/07/08 06:08:16;;;;;;;;;;;20.60;99.90;;;;;;4997566;28;19932;-62
2023/07/08 06:10:42;;;;;;;;;;;20.70;99.90;;;;;;5003820;28;20324;-63
2023/07/08 06:13:08;;;;;;;;;;;20.80;99.90;;;;;;5006930;28;19937;-62
2023/07/08 06:15:34;;;;;;;;;;;20.90;99.90;;;;;;4992962;28;19932;-63
2023/07/08 06:18:02;;;;;;;;;;;20.90;99.90;;;;;;5008071;28;19997;-68
2023/07/08 06:20:27;;;;;;;;;;;20.90;99.90;;;;;;5002527;28;19939;-68
2023/07/08 06:22:53;;;;;;;;;;;21.00;99.90;;;;;;5008855;28;19937;-68
2023/07/08 06:25:19;;;;;;;;;;;21.10;99.90;;;;;;5004733;28;20055;-69
2023/07/08 06:27:44;;;;;;;;;;;21.30;99.90;;;;;;5000568;28;20441;-67
2023/07/08 06:30:10;;;;;;;;;;;21.40;99.90;;;;;;4987731;28;19931;-69
2023/07/08 06:32:36;;;;;;;;;;;21.60;99.90;;;;;;4984610;28;19935;-69
2023/07/08 06:35:01;;;;;;;;;;;21.70;99.90;;;;;;4989716;28;19995;-67
2023/07/08 06:37:27;;;;;;;;;;;21.70;99.90;;;;;;4997821;28;20359;-65
2023/07/08 06:39:52;;;;;;;;;;;21.80;99.90;;;;;;4980069;28;20053;-65
2023/07/08 06:42:17;;;;;;;;;;;21.90;99.90;;;;;;4993087;28;19963;-65
2023/07/08 06:44:50;;;;;;;;;;;22.10;99.90;;;;;;5004983;28;19950;-65
2023/07/08 06:47:17;;;;;;;;;;;22.20;99.90;;;;;;5004565;28;20466;-65
2023/07/08 06:49:43;;;;;;;;;;;22.40;99.90;;;;;;5003302;28;20175;-65
2023/07/08 06:52:08;;;;;;;;;;;22.50;99.90;;;;;;5006831;28;20623;-66
2023/07/08 06:54:34;;;;;;;;;;;22.50;99.90;;;;;;5001579;28;19932;-66
2023/07/08 06:56:59;;;;;;;;;;;22.50;99.90;;;;;;5003987;28;20024;-65
2023/07/08 06:59:25;;;;;;;;;;;22.50;99.90;;;;;;4987080;28;19963;-65
2023/07/08 07:01:50;;;;;;;;;;;22.60;99.90;;;;;;5000066;28;20855;-65
2023/07/08 07:04:16;;;;;;;;;;;22.70;99.90;;;;;;5001751;28;19951;-66
2023/07/08 07:06:41;;;;;;;;;;;22.80;99.90;;;;;;4991322;28;19929;-66
2023/07/08 07:09:07;;;;;;;;;;;23.00;99.90;;;;;;4989832;28;19945;-66
2023/07/08 07:11:32;;;;;;;;;;;23.00;99.90;;;;;;4999262;28;22511;-66
2023/07/08 07:13:58;;;;;;;;;;;23.10;99.90;;;;;;4991921;28;20035;-66
2023/07/08 07:16:23;;;;;;;;;;;23.20;99.90;;;;;;4999270;28;20386;-66
2023/07/08 07:18:51;;;;;;;;;;;23.30;99.90;;;;;;4989436;28;20063;-65
2023/07/08 07:21:17;;;;;;;;;;;23.50;99.90;;;;;;5000987;28;19959;-66
2023/07/08 07:23:42;;;;;;;;;;;23.70;99.90;;;;;;4993912;28;20485;-65
2023/07/08 07:26:08;;;;;;;;;;;23.80;99.90;;;;;;4990432;28;19934;-66
2023/07/08 07:28:33;;;;;;;;;;;23.90;99.90;;;;;;5003181;28;19946;-65
2023/07/08 07:30:59;;;;;;;;;;;24.00;99.90;;;;;;5003794;28;19935;-65
2023/07/08 07:33:25;;;;;;;;;;;24.00;99.90;;;;;;5004366;28;19955;-65
2023/07/08 07:35:50;;;;;;;;;;;24.10;99.90;;;;;;5005408;28;19936;-66
2023/07/08 07:38:16;;;;;;;;;;;24.20;99.90;;;;;;5003907;28;21031;-66
2023/07/08 07:40:42;;;;;;;;;;;24.40;99.90;;;;;;5002456;28;19933;-66
2023/07/08 07:43:07;;;;;;;;;;;24.50;99.90;;;;;;5003830;28;19935;-66
2023/07/08 07:45:33;;;;;;;;;;;24.50;99.90;;;;;;5004566;28;19936;-66
2023/07/08 07:47:58;;;;;;;;;;;24.60;99.90;;;;;;4998459;28;20523;-66
2023/07/08 07:50:24;;;;;;;;;;;24.60;99.90;;;;;;4994127;28;20418;-70
2023/07/08 07:52:50;;;;;;;;;;;24.70;99.90;;;;;;5005602;28;19966;-70
2023/07/08 07:55:15;;;;;;;;;;;24.80;99.90;;;;;;4993308;28;19936;-69
2023/07/08 07:57:41;;;;;;;;;;;24.80;99.90;;;;;;4987148;28;20907;-69
2023/07/08 08:00:08;;;;;;;;;;;24.90;99.90;;;;;;4989989;28;21208;-68
2023/07/08 08:02:34;;;;;;;;;;;24.90;99.90;;;;;;4990305;28;20072;-68
2023/07/08 08:05:00;;;;;;;;;;;25.00;99.90;;;;;;4995677;28;20072;-68
2023/07/08 08:07:26;;;;;;;;;;;24.90;99.90;;;;;;4999600;28;19938;-67
2023/07/08 08:09:51;;;;;;;;;;;24.90;99.90;;;;;;4985015;28;19934;-70
2023/07/08 08:12:17;;;;;;;;;;;24.90;99.90;;;;;;4996142;28;20429;-70
2023/07/08 08:14:42;;;;;;;;;;;25.00;99.90;;;;;;4997219;28;20465;-69
2023/07/08 08:17:08;;;;;;;;;;;25.10;99.70;;;;;;5000249;28;19929;-69
2023/07/08 08:19:33;;;;;;;;;;;25.20;99.90;;;;;;5000233;28;19957;-69
2023/07/08 08:21:59;;;;;;;;;;;25.30;99.90;;;;;;4995938;28;20012;-69
2023/07/08 08:24:24;;;;;;;;;;;25.30;99.90;;;;;;4999654;28;20174;-68
2023/07/08 08:26:50;;;;;;;;;;;25.20;99.50;;;;;;4991254;28;19928;-69
2023/07/08 08:29:15;;;;;;;;;;;25.10;96.90;;;;;;4997291;28;19936;-68
2023/07/08 08:31:41;;;;;;;;;;;25.00;98.30;;;;;;4997332;28;19920;-69
2023/07/08 08:34:06;;;;;;;;;;;24.90;97.40;;;;;;4982007;28;20031;-69
2023/07/08 08:36:32;;;;;;;;;;;24.90;97.30;;;;;;4984005;28;19943;-69
2023/07/08 08:38:57;;;;;;;;;;;25.00;98.60;;;;;;4990821;28;20451;-69
2023/07/08 08:41:35;;;;;;;;;;;25.10;99.80;;;;;;4992804;28;19933;-68
2023/07/08 08:44:01;;;;;;;;;;;25.30;99.10;;;;;;4985678;28;20562;-69
2023/07/08 08:46:30;;;;;;;;;;;25.30;97.90;;;;;;4998968;28;20013;-65
2023/07/08 08:48:55;;;;;;;;;;;25.30;96.00;;;;;;4996835;28;20028;-65
2023/07/08 08:51:21;;;;;;;;;;;25.30;97.20;;;;;;4995790;28;19931;-66
2023/07/08 08:53:47;;;;;;;;;;;25.30;96.80;;;;;;4996492;28;20495;-66
2023/07/08 08:56:18;;;;;;;;;;;25.30;97.50;;;;;;4994354;28;20418;-66
2023/07/08 08:58:47;;;;;;;;;;;25.40;97.60;;;;;;5011130;28;20071;-67
2023/07/08 09:01:15;;;;;;;;;;;25.40;98.10;;;;;;4973789;28;20071;-66
2023/07/08 09:03:49;;;;;;;;;;;25.30;97.40;;;;;;4989632;28;20848;-68
2023/07/08 09:06:28;;;;;;;;;;;25.40;97.10;;;;;;4998080;28;19934;-67
2023/07/08 09:08:55;;;;;;;;;;;25.50;99.90;;;;;;4998856;28;19930;-67
2023/07/08 09:11:27;;;;;;;;;;;25.70;99.90;;;;;;4996379;28;20662;-67
2023/07/08 09:13:53;;;;;;;;;;;25.80;99.90;;;;;;4997257;28;19952;-67
2023/07/08 09:16:26;;;;;;;;;;;25.90;99.90;;;;;;4999604;28;19945;-68
2023/07/08 09:18:52;;;;;;;;;;;26.00;99.90;;;;;;5001420;28;21024;-70
2023/07/08 09:21:24;;;;;;;;;;;26.00;99.90;;;;;;4995385;28;20053;-68
2023/07/08 09:23:51;;;;;;;;;;;26.00;99.90;;;;;;4980915;28;19935;-69
2023/07/08 09:26:19;;;;;;;;;;;26.00;99.90;;;;;;5000627;28;20332;-69
2023/07/08 09:28:45;;;;;;;;;;;26.00;99.90;;;;;;4999852;28;21885;-69
2023/07/08 09:31:27;;;;;;;;;;;26.10;99.90;;;;;;4993925;28;19959;-68
2023/07/08 09:34:12;;;;;;;;;;;26.10;99.90;;;;;;4980020;28;20105;-69
2023/07/08 09:36:45;;;;;;;;;;;26.10;99.90;;;;;;4985483;28;19951;-69
2023/07/08 09:39:12;;;;;;;;;;;26.00;99.90;;;;;;4986613;28;20547;-69
2023/07/08 09:41:38;;;;;;;;;;;25.80;99.90;;;;;;4997302;28;19929;-69
2023/07/08 09:44:13;;;;;;;;;;;25.70;99.90;;;;;;5000110;28;19942;-69
2023/07/08 09:46:39;;;;;;;;;;;25.60;99.90;;;;;;5000571;28;19953;-69
2023/07/08 09:49:19;;;;;;;;;;;25.60;99.90;;;;;;5002592;28;20480;-69
2023/07/08 09:51:45;;;;;;;;;;;25.60;99.90;;;;;;5007782;28;19967;-69
2023/07/08 09:54:11;;;;;;;;;;;25.60;99.90;;;;;;4996602;28;19934;-69
2023/07/08 09:56:40;;;;;;;;;;;25.60;99.90;;;;;;4997119;28;22313;-69
2023/07/08 09:59:09;;;;;;;;;;;25.70;99.90;;;;;;4993731;28;20088;-69
2023/07/08 10:01:35;;;;;;;;;;;25.80;99.90;;;;;;4991447;28;19979;-69
2023/07/08 10:04:01;;;;;;;;;;;25.80;99.90;;;;;;4996994;28;20035;-69
2023/07/08 10:06:28;;;;;;;;;;;26.00;99.90;;;;;;4978728;28;20274;-70
2023/07/08 10:08:54;;;;;;;;;;;26.00;99.90;;;;;;5004595;28;20074;-70
2023/07/08 10:11:27;;;;;;;;;;;26.00;99.90;;;;;;5004268;28;19914;-69
2023/07/08 10:13:53;;;;;;;;;;;26.00;99.90;;;;;;5008412;28;19938;-69
2023/07/08 10:16:19;;;;;;;;;;;26.00;99.90;;;;;;5007005;28;19944;-69
2023/07/08 10:18:45;;;;;;;;;;;26.00;99.90;;;;;;5012946;28;19962;-66
2023/07/08 10:21:13;;;;;;;;;;;26.00;99.90;;;;;;5002339;28;20002;-66
2023/07/08 10:23:47;;;;;;;;;;;26.00;99.90;;;;;;5002076;28;19932;-66
2023/07/08 10:26:15;;;;;;;;;;;26.00;99.10;;;;;;5007897;28;19938;-66
2023/07/08 10:28:41;;;;;;;;;;;25.90;99.20;;;;;;4990062;28;19935;-67
2023/07/08 10:31:42;;;;;;;;;;;25.90;99.90;;;;;;4994498;28;19941;-67
2023/07/08 10:34:15;;;;;;;;;;;25.90;99.90;;;;;;4928321;28;19967;-67
2023/07/08 10:37:00;;;;;;;;;;;25.90;99.90;;;;;;4991367;28;19938;-67
2023/07/08 10:39:34;;;;;;;;;;;26.00;98.60;;;;;;5000969;28;19954;-67
2023/07/08 10:42:00;;;;;;;;;;;26.20;99.90;;;;;;5005043;28;20526;-67
2023/07/08 10:44:25;;;;;;;;;;;26.30;99.50;;;;;;4999726;28;20300;-67
2023/07/08 10:47:00;;;;;;;;;;;26.40;97.90;;;;;;5001249;28;19958;-66
2023/07/08 10:49:35;;;;;;;;;;;26.40;99.20;;;;;;4996627;28;19934;-66
2023/07/08 10:52:17;;;;;;;;;;;26.50;97.60;;;;;;4993418;28;21289;-67
2023/07/08 10:54:48;;;;;;;;;;;26.50;98.70;;;;;;4979961;28;19975;-66
2023/07/08 10:57:37;;;;;;;;;;;26.50;98.80;;;;;;4990401;28;19996;-67
2023/07/08 11:00:21;;;;;;;;;;;26.70;98.20;;;;;;4968561;28;19941;-67
2023/07/08 11:03:19;;;;;;;;;;;26.80;98.10;;;;;;5007623;28;19920;-66
2023/07/08 11:05:46;;;;;;;;;;;26.90;97.10;;;;;;4952433;28;19969;-66
2023/07/08 11:08:11;;;;;;;;;;;27.10;99.40;;;;;;5011948;28;21814;-66
2023/07/08 11:10:58;;;;;;;;;;;27.30;94.70;;;;;;5007922;28;19925;-70
2023/07/08 11:13:25;;;;;;;;;;;27.30;97.00;;;;;;5007924;28;19981;-66
2023/07/08 11:16:06;;;;;;;;;;;27.40;95.90;;;;;;5007813;28;20074;-66
2023/07/08 11:18:50;;;;;;;;;;;27.50;94.70;;;;;;5007989;28;20408;-66
2023/07/08 11:21:19;;;;;;;;;;;27.50;92.60;;;;;;5010046;28;19933;-66
2023/07/08 11:23:58;;;;;;;;;;;27.40;94.00;;;;;;4994770;28;20412;-66
2023/07/08 11:26:23;;;;;;;;;;;27.50;92.80;;;;;;5011272;28;19943;-66
2023/07/08 11:28:51;;;;;;;;;;;27.50;92.10;;;;;;4999798;28;19932;-67
2023/07/08 11:31:17;;;;;;;;;;;27.40;92.30;;;;;;5006962;28;19963;-67
2023/07/08 11:33:43;;;;;;;;;;;27.30;91.70;;;;;;5006249;28;19947;-66
2023/07/08 11:36:10;;;;;;;;;;;27.30;92.90;;;;;;5006571;28;19932;-67
2023/07/08 11:38:35;;;;;;;;;;;27.30;93.90;;;;;;5008895;28;19960;-67
2023/07/08 11:41:03;;;;;;;;;;;27.40;92.40;;;;;;4995234;28;19945;-66
2023/07/08 11:43:39;;;;;;;;;;;27.50;92.70;;;;;;4999838;28;19979;-66
2023/07/08 11:46:06;;;;;;;;;;;27.50;91.40;;;;;;4997623;28;22049;-66
2023/07/08 11:48:37;;;;;;;;;;;27.50;90.80;;;;;;4986346;28;19944;-66
2023/07/08 11:51:05;;;;;;;;;;;27.50;90.80;;;;;;5009953;28;19956;-66
2023/07/08 11:53:46;;;;;;;;;;;27.50;91.70;;;;;;5008581;28;19942;-66
2023/07/08 11:56:11;;;;;;;;;;;27.60;91.40;;;;;;5006241;28;19970;-66
2023/07/08 11:58:51;;;;;;;;;;;27.50;88.80;;;;;;5003225;28;20406;-66
2023/07/08 12:01:24;;;;;;;;;;;27.50;91.30;;;;;;5011671;28;19971;-66
2023/07/08 12:03:51;;;;;;;;;;;27.50;95.10;;;;;;5008905;28;20458;-66
2023/07/08 12:06:37;;;;;;;;;;;27.60;93.40;;;;;;5010163;28;20425;-67
2023/07/08 12:09:22;;;;;;;;;;;27.80;92.80;;;;;;4996236;28;19930;-69
2023/07/08 12:11:48;;;;;;;;;;;27.90;93.50;;;;;;5007527;28;19998;-69
2023/07/08 12:14:14;;;;;;;;;;;27.90;93.90;;;;;;5007862;28;19928;-70
2023/07/08 12:16:42;;;;;;;;;;;27.90;93.80;;;;;;5010580;28;20430;-69
2023/07/08 12:19:10;;;;;;;;;;;28.00;93.60;;;;;;5008480;28;19954;-69
2023/07/08 12:21:36;;;;;;;;;;;27.90;94.30;;;;;;5010170;28;20334;-69
2023/07/08 12:24:05;;;;;;;;;;;27.90;93.40;;;;;;5002037;28;19933;-69
2023/07/08 12:26:31;;;;;;;;;;;27.80;92.40;;;;;;5003382;28;19971;-67
2023/07/08 12:28:57;;;;;;;;;;;27.70;93.40;;;;;;5007352;28;20552;-68
2023/07/08 12:31:23;;;;;;;;;;;27.90;93.00;;;;;;5006352;28;19935;-68
2023/07/08 12:33:50;;;;;;;;;;;28.00;94.10;;;;;;5014903;28;19944;-68
2023/07/08 12:36:18;;;;;;;;;;;28.20;94.10;;;;;;5018682;28;20765;-67
2023/07/08 12:38:47;;;;;;;;;;;28.10;93.90;;;;;;5018328;28;19932;-68
2023/07/08 12:41:23;;;;;;;;;;;28.00;92.00;;;;;;5011363;28;20414;-67
2023/07/08 12:43:50;;;;;;;;;;;28.00;92.80;;;;;;5006124;28;19936;-67
2023/07/08 12:46:17;;;;;;;;;;;28.10;92.20;;;;;;5015088;28;20024;-69
2023/07/08 12:48:42;;;;;;;;;;;28.10;91.20;;;;;;5011193;28;20021;-69
2023/07/08 12:51:14;;;;;;;;;;;28.00;92.60;;;;;;5019457;28;20343;-69
2023/07/08 12:53:40;;;;;;;;;;;28.10;91.50;;;;;;5015692;28;19933;-70
2023/07/08 12:56:05;;;;;;;;;;;28.00;89.70;;;;;;5012900;28;19930;-69
2023/07/08 12:58:32;;;;;;;;;;;27.90;90.40;;;;;;5004224;28;21510;-69
2023/07/08 13:00:59;;;;;;;;;;;27.90;91.80;;;;;;5009193;28;19958;-68
2023/07/08 13:03:27;;;;;;;;;;;28.00;91.80;;;;;;5013242;28;19946;-69
2023/07/08 13:05:53;;;;;;;;;;;28.10;91.10;;;;;;5007641;28;19936;-69
2023/07/08 13:08:21;;;;;;;;;;;28.10;90.10;;;;;;5008718;28;19933;-68
2023/07/08 13:10:47;;;;;;;;;;;28.00;90.00;;;;;;5008165;28;20020;-69
2023/07/08 13:13:15;;;;;;;;;;;27.90;92.40;;;;;;5002931;28;19941;-69
2023/07/08 13:15:42;;;;;;;;;;;28.00;91.00;;;;;;5001937;28;19957;-70
2023/07/08 13:18:15;;;;;;;;;;;28.10;92.20;;;;;;5011132;28;19945;-70
2023/07/08 13:20:41;;;;;;;;;;;28.20;91.10;;;;;;5008122;28;19936;-65
2023/07/08 13:23:07;;;;;;;;;;;28.30;90.50;;;;;;5009004;28;19945;-70
2023/07/08 13:25:33;;;;;;;;;;;28.30;91.40;;;;;;4986965;28;19931;-70
2023/07/08 13:28:12;;;;;;;;;;;28.30;89.30;;;;;;5010179;28;19944;-69
2023/07/08 13:30:37;;;;;;;;;;;28.10;91.00;;;;;;5010367;28;19939;-69
2023/07/08 13:33:03;;;;;;;;;;;28.10;90.70;;;;;;5001655;28;21078;-69
2023/07/08 13:35:36;;;;;;;;;;;28.30;91.60;;;;;;4991724;28;19952;-69
2023/07/08 13:38:02;;;;;;;;;;;28.40;92.00;;;;;;5008577;28;19917;-69
2023/07/08 13:40:29;;;;;;;;;;;28.60;90.40;;;;;;4998309;28;19941;-69
2023/07/08 13:42:54;;;;;;;;;;;28.60;89.60;;;;;;5013534;28;20019;-69
2023/07/08 13:45:31;;;;;;;;;;;28.50;88.80;;;;;;5002540;28;19932;-68
2023/07/08 13:47:57;;;;;;;;;;;28.40;88.90;;;;;;4995538;28;19970;-68
2023/07/08 13:50:25;;;;;;;;;;;28.40;92.40;;;;;;4992129;28;19941;-68
2023/07/08 13:52:54;;;;;;;;;;;28.40;90.80;;;;;;5010366;28;19923;-69
2023/07/08 13:55:22;;;;;;;;;;;28.40;90.60;;;;;;4992930;28;19941;-69
2023/07/08 13:57:55;;;;;;;;;;;28.40;90.00;;;;;;5012779;28;19926;-69
2023/07/08 14:00:20;;;;;;;;;;;28.40;90.60;;;;;;4964708;28;19948;-69
2023/07/08 14:02:46;;;;;;;;;;;28.40;90.10;;;;;;5010600;28;19933;-70
2023/07/08 14:05:13;;;;;;;;;;;28.40;89.00;;;;;;5010359;28;20043;-69
2023/07/08 14:07:39;;;;;;;;;;;28.40;90.50;;;;;;5010536;28;19975;-69
2023/07/08 14:10:11;;;;;;;;;;;28.50;89.90;;;;;;4999842;28;20023;-69
2023/07/08 14:12:36;;;;;;;;;;;28.50;90.20;;;;;;5007123;28;19990;-69
2023/07/08 14:15:03;;;;;;;;;;;28.60;91.00;;;;;;5009596;28;19933;-69
2023/07/08 14:17:28;;;;;;;;;;;28.60;91.30;;;;;;5010056;28;19940;-69
2023/07/08 14:19:54;;;;;;;;;;;28.60;91.00;;;;;;5008239;28;19959;-70